Check out our new BloomSky Weather System.

Active alerts

Houston, TX
  Details for Houston, TX Dense Fog Advisory


Thunder radar  blitzortung!


Rain radar more information rain snow radar


Visit our other weather sites:

Template documentation
and downloads

And another site



Weather Underground History page Text

Daily Summary for June 25, 2017 Units:  Metric    English   Both
« Previous Day
Next Day »
Daily Weekly Monthly Yearly Custom
  High: Low: Average:
Temperature: 31.1 °C 22.3 °C 26.5 °C
Dew Point: 25.9 °C 21.9 °C 23.7 °C
Humidity: 99 % 63 % 86 %
Wind Speed: 12.9 km/h 0 km/h 2.4 km/h
Wind Gust: 32.2 km/h - -
Wind:- - SE
Pressure: 1021.2 hPa 1017.2 hPa -
Precipitation: 23.37 mm    
Historical Graphs
 
 
Tabular Data for June 25, 2017
Time Temperature Dew Point Pressure Wind Wind Speed Wind Gust Humidity Rainfall Rate (Hourly)
00:01 25.4 °C 24 °C 1018.8 hPa Calm   1.6 km/h 92 % 0 mm
00:06 25.4 °C 24.2 °C 1018.8 hPa Calm   1.6 km/h 93 % 0 mm
00:11 25.3 °C 24.1 °C 1018.8 hPa Calm   1.6 km/h 93 % 0 mm
00:16 25.4 °C 24.2 °C 1018.8 hPa Calm   1.6 km/h 93 % 0 mm
00:21 25.3 °C 24.1 °C 1018.8 hPa Calm   1.6 km/h 93 % 0 mm
00:26 25.3 °C 24.1 °C 1018.8 hPa Calm   1.6 km/h 93 % 0 mm
00:31 25.2 °C 24.2 °C 1018.8 hPa Calm     94 % 0 mm
00:36 25.2 °C 24.2 °C 1018.8 hPa Calm   1.6 km/h 94 % 0 mm
00:41 25.2 °C 24.2 °C 1018.8 hPa Calm   1.6 km/h 94 % 0 mm
00:46 25.1 °C 24.1 °C 1018.8 hPa Calm   1.6 km/h 94 % 0 mm
00:51 25 °C 24 °C 1018.8 hPa Calm   1.6 km/h 94 % 0 mm
00:56 25 °C 24.1 °C 1018.5 hPa Calm   1.6 km/h 95 % 0 mm
01:01 25.1 °C 24.2 °C 1018.5 hPa Calm   1.6 km/h 95 % 0 mm
01:06 25.1 °C 24.2 °C 1018.5 hPa Calm   1.6 km/h 95 % 0 mm
01:11 25 °C 24.1 °C 1018.5 hPa Calm   1.6 km/h 95 % 0 mm
01:16 25 °C 24.1 °C 1018.5 hPa Calm   1.6 km/h 95 % 0 mm
01:21 24.9 °C 24 °C 1018.8 hPa Calm   1.6 km/h 95 % 0 mm
01:26 24.8 °C 23.9 °C 1018.5 hPa Calm   1.6 km/h 95 % 0 mm
01:31 24.8 °C 23.9 °C 1018.5 hPa Calm     95 % 0 mm
01:36 24.8 °C 23.9 °C 1018.5 hPa Calm     95 % 0 mm
01:41 24.8 °C 23.9 °C 1018.5 hPa Calm     95 % 0 mm
01:46 24.8 °C 23.9 °C 1018.5 hPa Calm     95 % 0 mm
01:51 24.8 °C 23.9 °C 1018.5 hPa Calm     95 % 0 mm
01:53 24.8 °C 23.9 °C 1018.5 hPa Calm     95 % 0 mm
01:58 24.8 °C 24.1 °C 1018.5 hPa Calm     96 % 0 mm
02:03 24.8 °C 24.1 °C 1018.5 hPa Calm     96 % 0 mm
02:08 24.8 °C 24.1 °C 1018.5 hPa Calm   1.6 km/h 96 % 0 mm
02:13 24.8 °C 24.1 °C 1018.5 hPa Calm   1.6 km/h 96 % 0 mm
02:18 24.8 °C 24.1 °C 1018.5 hPa Calm   1.6 km/h 96 % 0 mm
02:23 24.8 °C 24.1 °C 1018.2 hPa Calm   1.6 km/h 96 % 0 mm
02:28 24.9 °C 24.2 °C 1018.5 hPa Calm   1.6 km/h 96 % 0 mm
02:33 24.9 °C 24.2 °C 1018.5 hPa NNW 1.6 km/h 1.6 km/h 96 % 0 mm
02:38 24.9 °C 24.2 °C 1018.5 hPa Calm   1.6 km/h 96 % 0 mm
02:43 24.9 °C 24.2 °C 1018.5 hPa Calm   1.6 km/h 96 % 0 mm
02:48 24.9 °C 24.2 °C 1018.5 hPa North 1.6 km/h 1.6 km/h 96 % 0 mm
02:53 24.9 °C 24.2 °C 1018.2 hPa Calm   1.6 km/h 96 % 0 mm
02:58 24.9 °C 24.2 °C 1018.2 hPa Calm   1.6 km/h 96 % 0 mm
03:03 24.9 °C 24.2 °C 1018.5 hPa Calm   1.6 km/h 96 % 0 mm
03:08 24.9 °C 24.2 °C 1018.5 hPa Calm   1.6 km/h 96 % 0 mm
03:13 24.9 °C 24.4 °C 1018.2 hPa Calm   1.6 km/h 97 % 0 mm
03:18 24.9 °C 24.4 °C 1018.2 hPa NNW 1.6 km/h 1.6 km/h 97 % 0 mm
03:23 25 °C 24.5 °C 1018.2 hPa Calm   1.6 km/h 97 % 0 mm
03:28 25 °C 24.3 °C 1018.2 hPa Calm   3.2 km/h 96 % 0 mm
03:33 24.9 °C 24.2 °C 1018.2 hPa Calm   3.2 km/h 96 % 0 mm
03:38 24.9 °C 24.2 °C 1018.2 hPa Calm   3.2 km/h 96 % 0 mm
03:43 25 °C 24.5 °C 1018.2 hPa Calm   1.6 km/h 97 % 0 mm
03:48 25 °C 24.5 °C 1017.8 hPa Calm   1.6 km/h 97 % 0 mm
03:53 25.1 °C 24.6 °C 1017.8 hPa Calm   1.6 km/h 97 % 0 mm
03:58 25.1 °C 24.6 °C 1017.8 hPa Calm   1.6 km/h 97 % 0 mm
04:03 25.1 °C 24.6 °C 1017.8 hPa Calm   1.6 km/h 97 % 0 mm
04:08 25.1 °C 24.6 °C 1017.8 hPa SSE 3.2 km/h 3.2 km/h 97 % 0 mm
04:13 25.2 °C 24.7 °C 1018.2 hPa SSE 1.6 km/h 4.8 km/h 97 % 0 mm
04:19 25.2 °C 24.7 °C 1018.2 hPa SE 3.2 km/h 6.4 km/h 97 % 0 mm
04:24 25.1 °C 24.6 °C 1018.2 hPa SSE 3.2 km/h 6.4 km/h 97 % 0.76 mm
04:29 25 °C 24.5 °C 1018.5 hPa SE 1.6 km/h 8 km/h 97 % 1.52 mm
04:34 24.8 °C 24.1 °C 1018.2 hPa South 6.4 km/h 9.7 km/h 96 % 2.54 mm
04:39 24.4 °C 23.7 °C 1018.5 hPa NE 1.6 km/h 9.7 km/h 96 % 2.79 mm
04:44 24 °C 23.1 °C 1018.5 hPa North 3.2 km/h 9.7 km/h 95 % 3.05 mm
04:49 23.8 °C 23.1 °C 1018.5 hPa East 6.4 km/h 9.7 km/h 96 % 3.56 mm
04:54 23.6 °C 22.9 °C 1018.5 hPa SE 1.6 km/h 9.7 km/h 96 % 4.06 mm
04:59 23.6 °C 22.9 °C 1018.5 hPa Calm   9.7 km/h 96 % 4.57 mm
05:04 23.6 °C 22.9 °C 1018.8 hPa NE 3.2 km/h 8 km/h 96 % 5.59 mm
05:09 23.4 °C 22.7 °C 1018.8 hPa East 1.6 km/h 6.4 km/h 96 % 6.35 mm
05:14 23.4 °C 22.7 °C 1018.8 hPa Calm   4.8 km/h 96 % 8.38 mm
05:19 23.3 °C 22.8 °C 1018.8 hPa Calm   4.8 km/h 97 % 9.65 mm
05:24 23.3 °C 22.8 °C 1019.2 hPa South 3.2 km/h 6.4 km/h 97 % 9.14 mm
05:29 23.3 °C 22.8 °C 1019.5 hPa ESE 9.7 km/h 9.7 km/h 97 % 8.89 mm
05:34 23.2 °C 22.5 °C 1019.5 hPa SE 8 km/h 17.7 km/h 96 % 8.13 mm
05:39 22.8 °C 22.1 °C 1019.5 hPa Calm   32.2 km/h 96 % 11.94 mm
05:44 22.7 °C 22 °C 1019.5 hPa SE 1.6 km/h 32.2 km/h 96 % 16.26 mm
05:49 22.7 °C 22.2 °C 1019.2 hPa ESE 3.2 km/h 32.2 km/h 97 % 17.02 mm
05:54 22.6 °C 21.9 °C 1019.2 hPa SE 1.6 km/h 11.3 km/h 96 % 17.78 mm
05:59 22.6 °C 22.1 °C 1018.8 hPa ESE 1.6 km/h 14.5 km/h 97 % 18.03 mm
06:04 22.6 °C 22.1 °C 1018.5 hPa Calm   14.5 km/h 97 % 17.53 mm
06:09 22.6 °C 22.1 °C 1018.5 hPa NW 1.6 km/h 14.5 km/h 97 % 16.76 mm
06:14 22.7 °C 22.2 °C 1018.8 hPa East 3.2 km/h 3.2 km/h 97 % 14.73 mm
06:19 22.7 °C 22.2 °C 1018.8 hPa Calm   4.8 km/h 97 % 13.46 mm
06:24 22.7 °C 22.2 °C 1018.5 hPa NW 1.6 km/h 4.8 km/h 97 % 13.21 mm
06:29 22.6 °C 22.1 °C 1018.5 hPa Calm   4.8 km/h 97 % 12.95 mm
06:34 22.6 °C 22.1 °C 1018.5 hPa NW 4.8 km/h 4.8 km/h 97 % 12.7 mm
06:39 22.5 °C 22 °C 1018.5 hPa NW 1.6 km/h 6.4 km/h 97 % 8.64 mm
06:44 22.4 °C 21.9 °C 1018.5 hPa Calm   6.4 km/h 97 % 4.06 mm
06:49 22.4 °C 21.9 °C 1018.5 hPa Calm   6.4 km/h 97 % 2.79 mm
06:54 22.4 °C 22.1 °C 1018.5 hPa ENE 1.6 km/h 6.4 km/h 98 % 1.27 mm
06:59 22.4 °C 22.1 °C 1018.5 hPa Calm   4.8 km/h 98 % 0.51 mm
07:04 22.4 °C 21.9 °C 1018.5 hPa Calm   1.6 km/h 97 % 0.25 mm
07:09 22.4 °C 22.1 °C 1018.5 hPa Calm   1.6 km/h 98 % 0.25 mm
07:14 22.4 °C 22.1 °C 1018.5 hPa Calm   1.6 km/h 98 % 0.25 mm
07:19 22.4 °C 22.1 °C 1018.5 hPa Calm   1.6 km/h 98 % 0.25 mm
07:24 22.3 °C 22 °C 1018.5 hPa Calm   1.6 km/h 98 % 0.25 mm
07:29 22.3 °C 22 °C 1018.5 hPa Calm   1.6 km/h 98 % 0 mm
07:34 22.3 °C 22 °C 1018.5 hPa Calm   1.6 km/h 98 % 0 mm
07:39 22.4 °C 22.1 °C 1018.8 hPa SSW 1.6 km/h 1.6 km/h 98 % 0 mm
07:45 22.4 °C 22.1 °C 1018.8 hPa Calm   3.2 km/h 98 % 0 mm
07:50 22.6 °C 22.3 °C 1018.8 hPa Calm   3.2 km/h 98 % 0 mm
07:54 22.6 °C 22.3 °C 1018.8 hPa Calm   3.2 km/h 98 % 0 mm
07:59 22.6 °C 22.3 °C 1019.2 hPa Calm   3.2 km/h 98 % 0 mm
08:04 22.8 °C 22.6 °C 1019.2 hPa Calm     99 % 0 mm
08:10 23.1 °C 22.8 °C 1019.5 hPa Calm     98 % 0 mm
08:14 23.1 °C 22.8 °C 1019.5 hPa Calm     98 % 0 mm
08:20 23.4 °C 23.1 °C 1019.5 hPa Calm   1.6 km/h 98 % 0 mm
08:24 23.5 °C 23.2 °C 1019.5 hPa Calm   3.2 km/h 98 % 0 mm
08:30 23.6 °C 23.1 °C 1019.5 hPa NNW 1.6 km/h 3.2 km/h 97 % 0 mm
08:35 23.4 °C 22.9 °C 1019.5 hPa Calm   3.2 km/h 97 % 0 mm
08:40 23.6 °C 23.1 °C 1019.5 hPa ENE 1.6 km/h 6.4 km/h 97 % 0 mm
08:45 23.6 °C 23.3 °C 1019.9 hPa Calm   6.4 km/h 98 % 0 mm
08:50 23.6 °C 23.1 °C 1019.9 hPa Calm   6.4 km/h 97 % 0 mm
08:55 23.6 °C 23.1 °C 1019.9 hPa NNW 4.8 km/h 4.8 km/h 97 % 0 mm
09:00 23.7 °C 23.2 °C 1019.9 hPa Calm   6.4 km/h 97 % 0 mm
09:05 23.9 °C 23.4 °C 1019.9 hPa ENE 3.2 km/h 9.7 km/h 97 % 0 mm
09:10 23.8 °C 22.9 °C 1019.9 hPa ENE 3.2 km/h 9.7 km/h 95 % 0 mm
09:15 23.9 °C 23 °C 1019.9 hPa NW 3.2 km/h 8 km/h 95 % 0 mm
09:20 24.4 °C 23.4 °C 1020.2 hPa NW 4.8 km/h 8 km/h 94 % 0 mm
09:25 25.1 °C 23.7 °C 1020.2 hPa ENE 1.6 km/h 8 km/h 92 % 0 mm
09:30 25.7 °C 23.7 °C 1020.2 hPa North 6.4 km/h 9.7 km/h 89 % 0 mm
09:35 26 °C 23.5 °C 1020.5 hPa NNW 1.6 km/h 9.7 km/h 86 % 0 mm
09:40 26.4 °C 23.9 °C 1020.5 hPa North 4.8 km/h 9.7 km/h 86 % 0 mm
09:45 26.8 °C 23.9 °C 1020.5 hPa NW 1.6 km/h 9.7 km/h 84 % 0 mm
09:50 27.2 °C 24.1 °C 1020.5 hPa NW 3.2 km/h 6.4 km/h 83 % 0 mm
09:55 27.3 °C 24 °C 1020.5 hPa ENE 1.6 km/h 6.4 km/h 82 % 0 mm
10:00 27.5 °C 23.9 °C 1020.5 hPa WNW 3.2 km/h 6.4 km/h 81 % 0 mm
10:05 27.4 °C 23.8 °C 1020.9 hPa NW 3.2 km/h 6.4 km/h 81 % 0 mm
10:10 27.4 °C 23.6 °C 1020.9 hPa NW 4.8 km/h 6.4 km/h 80 % 0 mm
10:15 27.6 °C 23.8 °C 1020.9 hPa NNW 1.6 km/h 8 km/h 80 % 0 mm
10:20 27.6 °C 23.8 °C 1020.9 hPa West 3.2 km/h 9.7 km/h 80 % 0 mm
10:25 27.3 °C 23.5 °C 1020.5 hPa NNE 1.6 km/h 14.5 km/h 80 % 0 mm
10:30 27.2 °C 23.2 °C 1020.5 hPa West 1.6 km/h 14.5 km/h 79 % 0 mm
10:35 27.3 °C 23.5 °C 1020.9 hPa NW 1.6 km/h 14.5 km/h 80 % 0 mm
10:39 27.3 °C 23.5 °C 1020.9 hPa North 8 km/h 14.5 km/h 80 % 0 mm
10:44 27.2 °C 23.9 °C 1020.9 hPa WSW 3.2 km/h 9.7 km/h 82 % 0 mm
10:49 27.2 °C 23.9 °C 1020.9 hPa ENE 4.8 km/h 9.7 km/h 82 % 0 mm
10:54 27.2 °C 24.1 °C 1020.9 hPa NNE 1.6 km/h 9.7 km/h 83 % 0 mm
10:59 27.3 °C 24.2 °C 1020.9 hPa NNW 1.6 km/h 9.7 km/h 83 % 0 mm
11:04 27.2 °C 24.1 °C 1021.2 hPa North 3.2 km/h 8 km/h 83 % 0 mm
11:09 27.2 °C 24.3 °C 1020.9 hPa ENE 1.6 km/h 9.7 km/h 84 % 0 mm
11:14 27.2 °C 24.3 °C 1020.9 hPa East 4.8 km/h 9.7 km/h 84 % 0 mm
11:19 27.1 °C 24.2 °C 1020.9 hPa SE 3.2 km/h 9.7 km/h 84 % 0 mm
11:24 27.1 °C 24.4 °C 1020.9 hPa ENE 3.2 km/h 9.7 km/h 85 % 0 mm
11:29 27.1 °C 24.4 °C 1020.9 hPa East 1.6 km/h 9.7 km/h 85 % 0 mm
11:34 27.2 °C 24.7 °C 1020.9 hPa Calm   9.7 km/h 86 % 0 mm
11:39 27.4 °C 24.7 °C 1020.9 hPa ESE 3.2 km/h 9.7 km/h 85 % 0 mm
11:44 27.5 °C 24.7 °C 1020.9 hPa Calm   9.7 km/h 85 % 0 mm
11:49 27.8 °C 24.8 °C 1020.9 hPa NW 8 km/h 12.9 km/h 84 % 0 mm
11:54 28.1 °C 24.9 °C 1020.9 hPa East 4.8 km/h 12.9 km/h 83 % 0 mm
11:59 28.3 °C 24.5 °C 1020.5 hPa ESE 4.8 km/h 12.9 km/h 80 % 0 mm
12:00 28.3 °C 24.5 °C 1020.5 hPa East 6.4 km/h 12.9 km/h 80 % 0 mm
12:05 28.3 °C 24.7 °C 1020.5 hPa NNW 3.2 km/h 12.9 km/h 81 % 0 mm
12:10 28.3 °C 24.5 °C 1020.5 hPa East 4.8 km/h 12.9 km/h 80 % 0 mm
12:15 28.2 °C 24.4 °C 1020.5 hPa East 3.2 km/h 12.9 km/h 80 % 0 mm
12:20 28.1 °C 24.5 °C 1020.5 hPa North 1.6 km/h 12.9 km/h 81 % 0 mm
12:25 28.2 °C 24.8 °C 1020.5 hPa NNE 1.6 km/h 11.3 km/h 82 % 0 mm
12:30 28.6 °C 25.2 °C 1020.2 hPa ENE 3.2 km/h 11.3 km/h 82 % 0 mm
12:35 28.7 °C 24.9 °C 1020.2 hPa ENE 1.6 km/h 9.7 km/h 80 % 0 mm
12:40 28.9 °C 25.7 °C 1020.2 hPa NW 3.2 km/h 9.7 km/h 83 % 0 mm
12:45 29.3 °C 25.7 °C 1020.2 hPa NNW 3.2 km/h 9.7 km/h 81 % 0 mm
12:50 29.5 °C 25.5 °C 1019.9 hPa East 9.7 km/h 9.7 km/h 79 % 0 mm
12:55 29.6 °C 25.6 °C 1019.9 hPa ENE 8 km/h 9.7 km/h 79 % 0 mm
13:00 29.4 °C 25.2 °C 1019.9 hPa NNW 1.6 km/h 12.9 km/h 78 % 0 mm
13:05 29.4 °C 25.6 °C 1019.9 hPa East 1.6 km/h 12.9 km/h 80 % 0 mm
13:10 29.4 °C 25.2 °C 1019.9 hPa NNE 1.6 km/h 12.9 km/h 78 % 0 mm
13:15 29.4 °C 25.2 °C 1019.9 hPa ENE 4.8 km/h 9.7 km/h 78 % 0 mm
13:20 29.3 °C 25.3 °C 1019.9 hPa East 3.2 km/h 12.9 km/h 79 % 0 mm
13:25 29.3 °C 25.3 °C 1019.5 hPa ENE 1.6 km/h 12.9 km/h 79 % 0 mm
13:30 29.6 °C 25.4 °C 1019.9 hPa South 3.2 km/h 12.9 km/h 78 % 0 mm
13:35 29.3 °C 25.1 °C 1019.5 hPa NE 6.4 km/h 14.5 km/h 78 % 0 mm
13:40 29.4 °C 25.2 °C 1019.5 hPa ESE 6.4 km/h 14.5 km/h 78 % 0 mm
13:45 29.8 °C 25.5 °C 1019.2 hPa ESE 1.6 km/h 14.5 km/h 78 % 0 mm
13:50 30.5 °C 25.8 °C 1019.2 hPa WNW 1.6 km/h 9.7 km/h 76 % 0 mm
13:55 30.7 °C 25.3 °C 1019.2 hPa NNW 3.2 km/h 9.7 km/h 73 % 0 mm
14:00 30.8 °C 25.9 °C 1019.2 hPa North 3.2 km/h 11.3 km/h 75 % 0 mm
14:05 30.8 °C 25.6 °C 1019.2 hPa NE 1.6 km/h 11.3 km/h 74 % 0 mm
14:10 30.3 °C 25.4 °C 1019.2 hPa NE 6.4 km/h 12.9 km/h 75 % 0 mm
14:15 30.3 °C 25.8 °C 1019.2 hPa ESE 6.4 km/h 12.9 km/h 77 % 0 mm
14:20 30.2 °C 25 °C 1019.2 hPa South 3.2 km/h 16.1 km/h 74 % 0 mm
14:25 30.4 °C 25.2 °C 1019.2 hPa SE 11.3 km/h 16.1 km/h 74 % 0 mm
14:31 30.3 °C 24.7 °C 1019.2 hPa East 8 km/h 16.1 km/h 72 % 0 mm
14:36 30.1 °C 23.3 °C 1018.8 hPa South 1.6 km/h 16.1 km/h 67 % 0 mm
14:41 30 °C 23.4 °C 1018.8 hPa ESE 11.3 km/h 16.1 km/h 68 % 0 mm
14:46 30 °C 23.4 °C 1018.8 hPa ESE 8 km/h 14.5 km/h 68 % 0 mm
14:51 30 °C 22.9 °C 1018.8 hPa East 3.2 km/h 14.5 km/h 66 % 0 mm
14:56 30 °C 22.7 °C 1018.8 hPa NNE 3.2 km/h 14.5 km/h 65 % 0 mm
15:01 30.1 °C 22.3 °C 1018.5 hPa ESE 8 km/h 12.9 km/h 63 % 0 mm
15:06 30.3 °C 23 °C 1018.5 hPa NW 1.6 km/h 11.3 km/h 65 % 0 mm
15:11 30.6 °C 23.5 °C 1018.5 hPa Calm   9.7 km/h 66 % 0 mm
15:16 30.6 °C 22.7 °C 1018.2 hPa ESE 1.6 km/h 9.7 km/h 63 % 0 mm
15:21 30.5 °C 22.7 °C 1018.2 hPa East 8 km/h 11.3 km/h 63 % 0 mm
15:26 30.6 °C 23 °C 1017.8 hPa NE 3.2 km/h 11.3 km/h 64 % 0 mm
15:31 30.7 °C 22.8 °C 1018.2 hPa SSE 1.6 km/h 11.3 km/h 63 % 0 mm
15:36 30.6 °C 23.5 °C 1018.2 hPa East 6.4 km/h 9.7 km/h 66 % 0 mm
15:41 30.3 °C 23.7 °C 1017.8 hPa ESE 9.7 km/h 11.3 km/h 68 % 0 mm
15:46 30.3 °C 24.2 °C 1017.8 hPa ESE 8 km/h 11.3 km/h 70 % 0 mm
15:51 30.3 °C 24.4 °C 1017.8 hPa ESE 11.3 km/h 11.3 km/h 71 % 0 mm
15:56 30 °C 24.6 °C 1017.8 hPa ESE 9.7 km/h 16.1 km/h 73 % 0 mm
16:01 29.8 °C 24.7 °C 1017.8 hPa ESE 4.8 km/h 16.1 km/h 74 % 0 mm
16:06 29.9 °C 25.2 °C 1017.8 hPa East 6.4 km/h 16.1 km/h 76 % 0 mm
16:11 30.2 °C 25.7 °C 1017.8 hPa ESE 12.9 km/h 14.5 km/h 77 % 0 mm
16:16 30.6 °C 25.7 °C 1017.8 hPa SSE 1.6 km/h 16.1 km/h 75 % 0 mm
16:21 30.7 °C 25.8 °C 1017.8 hPa WNW 3.2 km/h 16.1 km/h 75 % 0 mm
16:26 30.7 °C 25.8 °C 1017.8 hPa East 6.4 km/h 16.1 km/h 75 % 0 mm
16:31 30.9 °C 25.3 °C 1017.8 hPa ESE 4.8 km/h 14.5 km/h 72 % 0 mm
16:36 30.8 °C 25.2 °C 1017.8 hPa South 4.8 km/h 14.5 km/h 72 % 0 mm
16:41 30.8 °C 25.4 °C 1017.8 hPa East 4.8 km/h 14.5 km/h 73 % 0 mm
16:46 30.8 °C 25.4 °C 1017.8 hPa NNE 1.6 km/h 14.5 km/h 73 % 0 mm
16:51 30.7 °C 24.8 °C 1017.8 hPa ESE 1.6 km/h 14.5 km/h 71 % 0 mm
16:56 30.6 °C 25.2 °C 1017.8 hPa SE 4.8 km/h 14.5 km/h 73 % 0 mm
17:01 30.6 °C 25 °C 1017.8 hPa ESE 4.8 km/h 14.5 km/h 72 % 0 mm
17:06 30.9 °C 24.8 °C 1017.8 hPa SE 8 km/h 14.5 km/h 70 % 0 mm
17:11 31.1 °C 25 °C 1017.8 hPa East 1.6 km/h 14.5 km/h 70 % 0 mm
17:16 31 °C 25.4 °C 1017.8 hPa ENE 11.3 km/h 14.5 km/h 72 % 0 mm
17:21 30.6 °C 24.7 °C 1017.8 hPa NNW 3.2 km/h 14.5 km/h 71 % 0 mm
17:26 30.3 °C 24.9 °C 1017.8 hPa SSE 3.2 km/h 12.9 km/h 73 % 0 mm
17:31 30.1 °C 24.7 °C 1017.8 hPa East 3.2 km/h 12.9 km/h 73 % 0 mm
17:36 30 °C 24.6 °C 1017.5 hPa ENE 6.4 km/h 11.3 km/h 73 % 0 mm
17:41 30.1 °C 25 °C 1017.5 hPa NE 6.4 km/h 9.7 km/h 74 % 0 mm
17:46 30.2 °C 24.8 °C 1017.5 hPa East 3.2 km/h 12.9 km/h 73 % 0 mm
17:51 30.4 °C 24.8 °C 1017.5 hPa SE 9.7 km/h 12.9 km/h 72 % 0 mm
17:56 30.4 °C 24.1 °C 1017.5 hPa East 1.6 km/h 16.1 km/h 69 % 0 mm
18:01 30.2 °C 24.4 °C 1017.2 hPa North 1.6 km/h 16.1 km/h 71 % 0 mm
18:06 29.9 °C 24.1 °C 1017.2 hPa ESE 1.6 km/h 16.1 km/h 71 % 0 mm
18:11 29.8 °C 24.2 °C 1017.2 hPa ENE 3.2 km/h 12.9 km/h 72 % 0 mm
18:16 29.7 °C 24.3 °C 1017.5 hPa ESE 3.2 km/h 9.7 km/h 73 % 0 mm
18:21 29.7 °C 24.1 °C 1017.5 hPa ESE 6.4 km/h 8 km/h 72 % 0 mm
18:26 29.4 °C 23.8 °C 1017.5 hPa SE 1.6 km/h 9.7 km/h 72 % 0 mm
18:31 29.4 °C 24.3 °C 1017.5 hPa ESE 12.9 km/h 12.9 km/h 74 % 0 mm
18:36 29.1 °C 24 °C 1017.5 hPa SE 4.8 km/h 19.3 km/h 74 % 0 mm
18:41 28.8 °C 24.1 °C 1017.5 hPa ESE 4.8 km/h 19.3 km/h 76 % 0 mm
18:46 28.6 °C 23.9 °C 1017.8 hPa ESE 1.6 km/h 19.3 km/h 76 % 0 mm
18:51 28.2 °C 23.1 °C 1017.8 hPa SE 8 km/h 16.1 km/h 74 % 0 mm
18:56 27.8 °C 22.7 °C 1017.8 hPa ESE 4.8 km/h 16.1 km/h 74 % 0 mm
19:01 27.7 °C 22.6 °C 1017.8 hPa SSE 6.4 km/h 16.1 km/h 74 % 0 mm
19:07 27.6 °C 22.5 °C 1017.8 hPa SE 3.2 km/h 16.1 km/h 74 % 0 mm
19:12 27.6 °C 22.8 °C 1017.5 hPa SSE 3.2 km/h 11.3 km/h 75 % 0 mm
19:16 27.6 °C 22.8 °C 1017.5 hPa ESE 3.2 km/h 9.7 km/h 75 % 0 mm
19:21 27.5 °C 22.9 °C 1017.5 hPa SE 1.6 km/h 9.7 km/h 76 % 0 mm
19:26 27.4 °C 23 °C 1017.5 hPa ESE 1.6 km/h 9.7 km/h 77 % 0 mm
19:31 27.4 °C 23 °C 1017.8 hPa ESE 3.2 km/h 9.7 km/h 77 % 0 mm
19:36 27.4 °C 23 °C 1017.8 hPa Calm   9.7 km/h 77 % 0 mm
19:41 27.3 °C 22.9 °C 1017.8 hPa Calm   6.4 km/h 77 % 0 mm
19:46 27.3 °C 22.9 °C 1018.2 hPa Calm   4.8 km/h 77 % 0 mm
19:51 27.2 °C 22.8 °C 1018.2 hPa Calm   4.8 km/h 77 % 0 mm
19:56 27.2 °C 22.8 °C 1017.8 hPa Calm   4.8 km/h 77 % 0 mm
20:01 27.1 °C 22.7 °C 1017.8 hPa ESE 3.2 km/h 3.2 km/h 77 % 0 mm
20:06 27.1 °C 22.7 °C 1017.8 hPa Calm   6.4 km/h 77 % 0 mm
20:11 27 °C 22.8 °C 1017.8 hPa NE 3.2 km/h 6.4 km/h 78 % 0 mm
20:16 27.1 °C 23.1 °C 1017.8 hPa ENE 3.2 km/h 6.4 km/h 79 % 0 mm
20:21 27.1 °C 23.3 °C 1018.2 hPa NNE 3.2 km/h 8 km/h 80 % 0 mm
20:26 26.9 °C 23.6 °C 1018.2 hPa Calm   9.7 km/h 82 % 0 mm
20:31 26.7 °C 23.4 °C 1018.2 hPa North 1.6 km/h 9.7 km/h 82 % 0 mm
20:37 26.6 °C 23.5 °C 1018.2 hPa SE 1.6 km/h 9.7 km/h 83 % 0 mm
20:42 26.4 °C 23.5 °C 1018.2 hPa NE 3.2 km/h 8 km/h 84 % 0 mm
20:47 26.3 °C 23.4 °C 1018.2 hPa Calm   6.4 km/h 84 % 0 mm
20:52 26.3 °C 23.4 °C 1018.2 hPa Calm   4.8 km/h 84 % 0 mm
20:57 26.2 °C 23.5 °C 1018.2 hPa Calm   4.8 km/h 85 % 0 mm
21:02 26.2 °C 23.5 °C 1018.2 hPa Calm   4.8 km/h 85 % 0 mm
21:07 26.1 °C 23.2 °C 1018.5 hPa East 3.2 km/h 4.8 km/h 84 % 0 mm
21:12 26 °C 23.1 °C 1018.5 hPa Calm   9.7 km/h 84 % 0 mm
21:17 25.9 °C 23 °C 1018.5 hPa North 1.6 km/h 9.7 km/h 84 % 0 mm
21:22 25.9 °C 22.8 °C 1018.5 hPa Calm   9.7 km/h 83 % 0 mm
21:27 25.8 °C 22.7 °C 1018.5 hPa Calm   4.8 km/h 83 % 0 mm
21:32 25.7 °C 22.8 °C 1018.8 hPa Calm   3.2 km/h 84 % 0 mm
21:37 25.7 °C 22.8 °C 1018.8 hPa Calm   3.2 km/h 84 % 0 mm
21:42 25.7 °C 23 °C 1018.8 hPa ENE 1.6 km/h 3.2 km/h 85 % 0 mm
21:47 25.6 °C 22.9 °C 1018.5 hPa ENE 1.6 km/h 4.8 km/h 85 % 0 mm
21:52 25.5 °C 22.8 °C 1018.8 hPa Calm   4.8 km/h 85 % 0 mm
21:57 25.4 °C 22.7 °C 1018.8 hPa Calm   4.8 km/h 85 % 0 mm
22:02 25.3 °C 22.6 °C 1018.8 hPa NNW 1.6 km/h 4.8 km/h 85 % 0 mm
22:07 25.3 °C 22.8 °C 1018.8 hPa ENE 1.6 km/h 3.2 km/h 86 % 0 mm
22:12 25.2 °C 22.7 °C 1018.8 hPa North 1.6 km/h 4.8 km/h 86 % 0 mm
22:17 25.2 °C 22.7 °C 1019.2 hPa Calm   4.8 km/h 86 % 0 mm
22:22 25.2 °C 22.7 °C 1019.2 hPa NE 1.6 km/h 4.8 km/h 86 % 0 mm
22:27 25.1 °C 22.6 °C 1019.2 hPa Calm   4.8 km/h 86 % 0 mm
22:32 25 °C 22.5 °C 1019.2 hPa Calm   4.8 km/h 86 % 0 mm
22:37 25 °C 22.5 °C 1019.2 hPa Calm   4.8 km/h 86 % 0 mm
22:42 24.9 °C 22.6 °C 1019.2 hPa NNE 1.6 km/h 3.2 km/h 87 % 0 mm
22:47 24.9 °C 22.6 °C 1019.2 hPa Calm   3.2 km/h 87 % 0 mm
22:52 25 °C 22.7 °C 1019.2 hPa Calm   4.8 km/h 87 % 0 mm
22:57 25.1 °C 22.8 °C 1019.2 hPa Calm   4.8 km/h 87 % 0 mm
23:02 25.1 °C 22.8 °C 1019.2 hPa NE 1.6 km/h 4.8 km/h 87 % 0 mm
23:07 25.3 °C 23 °C 1019.2 hPa Calm   4.8 km/h 87 % 0 mm
23:12 25.3 °C 23 °C 1019.5 hPa ENE 4.8 km/h 6.4 km/h 87 % 0 mm
23:17 25.4 °C 23.1 °C 1019.2 hPa Calm   8 km/h 87 % 0 mm
23:22 25.4 °C 23.1 °C 1019.2 hPa Calm   8 km/h 87 % 0 mm
23:27 25.4 °C 23.3 °C 1019.2 hPa Calm   8 km/h 88 % 0 mm
23:32 25.4 °C 23.3 °C 1019.2 hPa Calm   6.4 km/h 88 % 0 mm
23:37 25.4 °C 23.3 °C 1018.8 hPa Calm   6.4 km/h 88 % 0 mm
23:42 25.3 °C 23.2 °C 1018.8 hPa Calm   3.2 km/h 88 % 0 mm
23:47 25.2 °C 23.3 °C 1019.2 hPa NE 1.6 km/h 4.8 km/h 89 % 0 mm
23:52 25.2 °C 23.3 °C 1019.2 hPa ESE 1.6 km/h 4.8 km/h 89 % 0 mm
23:57 25.2 °C 23.4 °C 1019.2 hPa East 4.8 km/h 4.8 km/h 90 % 0 mm
Spring, Texas: Villages of Bridgestone
Compliments of Weather Underground - 2.75 mb

Script developed by  Jim McMurry - jmcmurry@mwt.net Adapted for the template by  Wim van der Kuil - Leuven-Template.eu

You find our weather info also at:

UK Metoffice

WeatherCloud

Weather Underground

Mid-South Weather Network

AWEKAS

Citizen Weather Observer Program (CWOP)

HAMweather, WeatherForYou, PWS Weather

Equipment we use:

Weather-station
Davis Vantage Vue

Weather-program
Meteohub

Weather-server
Debian 7.9 x86 (Guest)

Provider
DreamHost

Davis Vantage Vue

Meteohub

Debian 7.9 x86 (Guest)

DreamHost